Terminal Aerodrome Forecast
Issued by NWS Sterling, VA

Current Version | Previous Version | Graphics & Text | Print | Product List | Glossary On
Versions: 1 2 3 4 5 6 7 8 9 10 11 12 13 14 15
000
FTUS41 KLWX 261737
TAFMRB
TAF
KMRB 261737Z 2618/2718 01009KT P6SM OVC015
     FM270100 30004KT 5SM -SHSN OVC015
     FM270500 VRB03KT P6SM OVC015
     FM271500 32008G17KT P6SM BKN035=

USA.gov is the U.S. government's official web portal to all federal, state and local government web resources and services.